Aérodrome :
LOGIN :

S'inscrire | Disclaimer

   EN    FR    IT 

 










Légende :    VFR   VFR Marginal   IFR   IFR Intensif   IFR Très Intensif
Visi : 
Plafond : 
>= 8 km
>= 3000ft
5 à 8 km
1000 à 3000 ft
1500m à 5 km
500 à 1000 ft
800 à 1500m
200 à 500 ft
< 800m
< 200 ft
Symboles :   Orages  Brouillard  Fortes neiges  Fortes précipitations  Vent > 20 kt
SIGMETs :   Divers  Orages  Givrage  Turbulence  Onde Orograph.  Cendres Volcan.






- Altitude de l'aérodrome : 257 ft
- Code IATA : MAN


EGCC - Manchester

DERNIER METAR :
  • 232020Z AUTO VRB03KT 9999 NCD 04/01 Q1022 NOSIG

METARs EXPIRÉS :
  • 231950Z AUTO 23005KT 9999 NCD 04/01 Q1022
  • 231920Z AUTO 25008KT 9999 NCD 05/01 Q1021 NOSIG
  • 231850Z AUTO 23004KT 9999 FEW036 05/01 Q1021 NOSIG
  • 231820Z AUTO 27010KT 9999 NCD 06/01 Q1021 NOSIG
  • 231750Z AUTO 27009KT 9999 NCD 06/01 Q1021 NOSIG

TAF TAF EGCC
Valide du 23 à 18h jusqu'au 25 à 00h UTC


231700Z 2318/2424 27010KT 9999 FEW030
BECMG 2318/2321 19005KT
BECMG 2400/2403 13010KT 8000 -RA SCT005 BKN010
TEMPO 2402/2409 4000 RA BKN005
PROB40
TEMPO 2403/2409 1200 +RA BR BKN002
BECMG 2409/2412 22012KT 9999 NSW BKN025
BECMG 2415/2418 27018G28KT
PROB30
TEMPO 2418/2424 7000 SHRA
ATIS : +44 161 499 2324



MET'MAP, la Météo Aéronautique d'un coup d'oeil ! - Copyright ORBIFLY Décembre 2007 - Disclaimer

ORBIFLY MET'MAP TEAM :

Programmation & Développement : Alexandra Zaïnal
Sur une idée originale de : Baudouin d'Aumeries
Assistance à la programmation : Marc-Olivier Méhu
Soutien technique & logistique : Manuel Goepfert

Contact : metmap@orbifly.com




SOURCES & CREDITS :

   NOAA